Briefing drone pour Reignier-esery

Rechercher une autre localisation

Conditions de vol :


Nous sommes le : Jeudi 09 février 2023
Il est 23:14 UTC (00:14 LT)

Lever de soleil : 06:20 UTC (07:20 LT)
Coucher de soleil : 17:17 UTC (18:17 LT)

Météo

L'essentiel des conditions de vol

VIGILANCE MÉTÉO FRANCE - Haute-Savoie (74)
Pas de vigilances particulieres
CARTE TEMSI
CARTES DES FRONTS
METAR de LFLP
LFLP 082300Z AUTO VRB02KT 5000 BR NSC M03/M05 Q1031

Date d'émission: 08/02/2023
Heure d'émission: 23:00 UTC
Vent: Variable 2 KT (4 km/h)
Visibilité horizontale: 5000 m
Plafond : Pas de nuages significatifs (NSC)
Température: -3 °C
Point de rosée: -5 °C
Humidité: 86%
Pression (QNH): 1031 hPa
Conditions: Brume
TAF de LFLP
AMD LFLP 081900Z 0818/0915 CNL

Conditions prévues :

Heure d'émission : Bulletin éffectué le 08 à 18:00 UTC
Prévision : Valide du 08 a 18:00 UTC au 09 a 15:00 UTC
Nuages : à 0ft (0 m)
WEBCAM POUR REIGNIER-ESERY

Réglementation

Voler en sécurité

CARTES AERONAUTIQUE 1/500.000
CARTE AZBA (Reseau basse altitude)
CARTES VAC (LFLP)
SUP AIP




Chargement des AIP...
NOTAM (REIGNIER-ESERY + Terrain à proximité / FIR )




Chargement des NOTAMS...
CONTACT PREFECTURE 74
Haute-Savoie (74) : [email protected]


Avertissement : Les données mises à disposition sont indicatives. Oxygène Drone ne pourra être tenu responsable de dégâts causés aux biens et aux personnes.